Time;durP1;ratioP1;P1;durP2;ratioP2;P2;SDS_P1;SDS_P2;PMS_P1;PMS_P2;Temp;Humidity;BMP_temperature;BMP_pressure;BME280_temperature;BME280_humidity;BME280_pressure;Samples;Min_cycle;Max_cycle;Signal;HPM_P1;HPM_P2
2024/01/30 00:00:31;;;;;;;24.73;15.52;;;;;;;5.68;100.00;102637.00;5095576;28;20116;-77
2024/01/30 00:02:57;;;;;;;25.65;15.27;;;;;;;5.71;100.00;102643.00;5095102;28;20085;-76
2024/01/30 00:05:22;;;;;;;24.38;15.60;;;;;;;5.78;100.00;102647.13;5077679;28;20388;-76
2024/01/30 00:07:47;;;;;;;25.85;16.00;;;;;;;5.83;100.00;102642.50;5095273;28;20354;-75
2024/01/30 00:10:13;;;;;;;32.38;16.27;;;;;;;5.86;100.00;102638.88;5077115;28;20059;-76
2024/01/30 00:12:38;;;;;;;23.38;14.95;;;;;;;5.88;100.00;102631.75;5077148;28;20477;-75
2024/01/30 00:15:04;;;;;;;25.90;14.77;;;;;;;5.91;100.00;102622.81;5094651;28;20031;-76
2024/01/30 00:17:30;;;;;;;23.33;14.10;;;;;;;5.94;100.00;102628.84;5077147;28;20052;-75
2024/01/30 00:19:55;;;;;;;24.42;15.55;;;;;;;5.96;100.00;102623.50;5094771;28;20028;-77
2024/01/30 00:22:21;;;;;;;24.63;14.50;;;;;;;5.96;100.00;102627.00;5095033;28;20032;-76
2024/01/30 00:24:46;;;;;;;20.35;14.35;;;;;;;5.98;100.00;102625.16;5094508;28;20028;-76
2024/01/30 00:27:11;;;;;;;19.42;12.50;;;;;;;5.98;100.00;102619.03;5094932;28;20044;-77
2024/01/30 00:29:37;;;;;;;20.05;13.75;;;;;;;5.98;100.00;102617.25;5094774;28;20481;-75
2024/01/30 00:32:02;;;;;;;21.20;14.75;;;;;;;6.01;100.00;102621.53;5094571;28;20460;-75
2024/01/30 00:34:27;;;;;;;27.27;13.32;;;;;;;6.04;100.00;102620.56;5094622;28;20055;-75
2024/01/30 00:36:53;;;;;;;23.58;13.02;;;;;;;6.05;100.00;102619.66;5076299;28;20042;-76
2024/01/30 00:39:19;;;;;;;19.52;13.00;;;;;;;6.06;100.00;102623.97;5059000;28;20474;-77
2024/01/30 00:41:45;;;;;;;17.42;11.70;;;;;;;6.09;100.00;102623.84;5093934;28;20464;-76
2024/01/30 00:44:10;;;;;;;19.38;11.82;;;;;;;6.11;100.00;102635.25;5093898;28;20047;-76
2024/01/30 00:46:36;;;;;;;19.80;12.70;;;;;;;6.13;100.00;102628.94;5059637;28;20049;-76
2024/01/30 00:49:01;;;;;;;19.63;12.95;;;;;;;6.13;100.00;102620.16;5094906;28;20089;-75
2024/01/30 00:51:28;;;;;;;16.10;11.50;;;;;;;6.13;100.00;102634.22;5093876;28;20027;-75
2024/01/30 00:53:54;;;;;;;19.55;12.45;;;;;;;6.20;100.00;102629.53;5076819;28;20092;-75
2024/01/30 00:56:19;;;;;;;19.67;11.77;;;;;;;6.27;100.00;102622.19;5094098;28;20491;-77
2024/01/30 00:58:44;;;;;;;17.10;11.63;;;;;;;6.40;100.00;102611.94;5093646;28;20035;-76
2024/01/30 01:01:10;;;;;;;21.63;12.18;;;;;;;6.48;100.00;102618.59;5075682;28;20032;-76
2024/01/30 01:03:35;;;;;;;22.38;11.75;;;;;;;6.54;100.00;102617.47;5093654;28;20067;-76
2024/01/30 01:06:00;;;;;;;18.40;11.63;;;;;;;6.56;100.00;102612.97;5093903;28;20123;-76
2024/01/30 01:08:26;;;;;;;18.65;11.60;;;;;;;6.61;100.00;102615.41;5093719;28;20058;-77
2024/01/30 01:10:52;;;;;;;17.13;10.65;;;;;;;6.70;100.00;102617.63;5093406;28;20129;-77
2024/01/30 01:13:17;;;;;;;22.55;10.90;;;;;;;6.71;100.00;102604.31;5094077;28;20032;-76
2024/01/30 01:15:42;;;;;;;13.82;10.32;;;;;;;6.77;100.00;102602.34;5093165;28;20360;-76
2024/01/30 01:18:08;;;;;;;18.40;10.45;;;;;;;6.84;100.00;102599.34;5093949;28;20508;-76
2024/01/30 01:20:33;;;;;;;12.68;9.65;;;;;;;6.93;100.00;102602.50;5075737;28;20519;-76
2024/01/30 01:22:58;;;;;;;16.38;9.75;;;;;;;7.00;100.00;102586.25;5093404;28;20039;-77
2024/01/30 01:25:24;;;;;;;16.90;10.10;;;;;;;7.07;100.00;102571.75;5075461;28;20042;-76
2024/01/30 01:27:52;;;;;;;17.52;8.65;;;;;;;7.15;100.00;102565.25;5093748;28;20078;-76
2024/01/30 01:30:21;;;;;;;11.80;9.25;;;;;;;7.18;100.00;102570.38;5093492;28;20085;-76
2024/01/30 01:32:50;;;;;;;13.95;9.43;;;;;;;7.19;100.00;102556.22;5093399;28;20024;-75
2024/01/30 01:35:16;;;;;;;13.77;8.88;;;;;;;7.17;100.00;102568.69;5076671;28;20035;-76
2024/01/30 01:37:41;;;;;;;15.77;8.63;;;;;;;7.15;100.00;102567.88;5093511;28;20036;-75
2024/01/30 01:40:07;;;;;;;13.63;9.13;;;;;;;7.12;100.00;102566.28;5093227;28;20043;-75
2024/01/30 01:42:32;;;;;;;14.98;9.27;;;;;;;7.09;100.00;102568.19;5094289;28;20371;-76
2024/01/30 01:44:58;;;;;;;15.48;8.85;;;;;;;7.06;100.00;102572.72;5093720;28;20030;-76
2024/01/30 01:47:24;;;;;;;13.65;9.48;;;;;;;7.02;100.00;102579.06;5093500;28;20547;-80
2024/01/30 01:49:49;;;;;;;14.88;9.60;;;;;;;6.97;100.00;102573.16;5093746;28;20040;-75
2024/01/30 01:52:15;;;;;;;15.85;9.48;;;;;;;6.91;100.00;102564.63;5097769;28;20043;-76
2024/01/30 01:54:41;;;;;;;16.38;9.32;;;;;;;6.87;100.00;102570.06;5097096;28;20060;-76
2024/01/30 01:57:06;;;;;;;13.60;9.63;;;;;;;6.84;100.00;102572.03;5079317;28;20449;-76
2024/01/30 01:59:32;;;;;;;15.20;9.73;;;;;;;6.82;100.00;102579.16;5097399;28;20081;-75
2024/01/30 02:01:57;;;;;;;16.30;10.75;;;;;;;6.79;100.00;102574.00;5062526;28;20376;-75
2024/01/30 02:04:23;;;;;;;15.27;10.05;;;;;;;6.78;100.00;102567.03;5097382;28;20039;-75
2024/01/30 02:06:48;;;;;;;17.60;9.70;;;;;;;6.75;100.00;102568.03;5096864;28;20060;-75
2024/01/30 02:09:14;;;;;;;16.25;9.65;;;;;;;6.75;100.00;102570.66;5079022;28;20039;-75
2024/01/30 02:11:40;;;;;;;14.23;9.40;;;;;;;6.69;100.00;102560.38;5097109;28;20456;-77
2024/01/30 02:14:06;;;;;;;13.65;9.60;;;;;;;6.66;100.00;102566.66;5079282;28;20032;-76
2024/01/30 02:16:32;;;;;;;14.73;9.65;;;;;;;6.62;100.00;102565.06;5096621;28;20507;-76
2024/01/30 02:18:57;;;;;;;15.35;10.07;;;;;;;6.59;100.00;102567.88;5097330;28;20089;-75
2024/01/30 02:21:23;;;;;;;16.10;9.20;;;;;;;6.61;100.00;102565.16;5097051;28;20387;-76
2024/01/30 02:23:49;;;;;;;18.08;10.15;;;;;;;6.62;100.00;102567.72;5096628;28;20063;-76
2024/01/30 02:26:15;;;;;;;19.08;9.45;;;;;;;6.68;100.00;102562.13;5096529;28;20028;-76
2024/01/30 02:28:40;;;;;;;15.88;9.57;;;;;;;6.74;100.00;102568.09;5097008;28;20157;-77
2024/01/30 02:31:06;;;;;;;17.42;9.32;;;;;;;6.80;100.00;102565.16;5096462;28;20476;-77
2024/01/30 02:33:31;;;;;;;18.50;9.77;;;;;;;6.89;100.00;102567.34;5096887;28;20118;-78
2024/01/30 02:35:57;;;;;;;13.43;9.25;;;;;;;6.96;100.00;102566.13;5096654;28;20075;-77
2024/01/30 02:38:23;;;;;;;19.25;10.18;;;;;;;7.02;100.00;102562.34;5096738;28;20036;-76
2024/01/30 02:40:49;;;;;;;16.50;9.30;;;;;;;7.06;100.00;102566.53;5096260;28;20494;-77
2024/01/30 02:43:14;;;;;;;13.98;8.80;;;;;;;7.08;100.00;102546.16;5078334;28;20173;-77
2024/01/30 02:45:40;;;;;;;17.20;9.43;;;;;;;7.13;100.00;102532.69;5078390;28;20032;-77
2024/01/30 02:48:05;;;;;;;14.60;9.68;;;;;;;7.17;100.00;102532.47;5078277;28;20059;-75
2024/01/30 02:50:34;;;;;;;15.38;9.48;;;;;;;7.23;100.00;102539.25;5096730;28;20032;-76
2024/01/30 02:53:00;;;;;;;19.48;9.05;;;;;;;7.23;100.00;102532.16;5078128;28;20035;-76
2024/01/30 02:55:25;;;;;;;13.50;9.00;;;;;;;7.26;100.00;102523.22;5096629;28;20040;-74
2024/01/30 02:57:51;;;;;;;12.70;8.52;;;;;;;7.27;100.00;102530.25;5096009;28;20032;-76
2024/01/30 03:00:16;;;;;;;13.82;9.13;;;;;;;7.27;100.00;102518.78;5097041;28;20028;-76
2024/01/30 03:02:42;;;;;;;13.80;8.77;;;;;;;7.22;100.00;102526.94;5095517;28;20039;-76
2024/01/30 03:05:08;;;;;;;13.48;8.82;;;;;;;7.20;100.00;102524.38;5096575;28;20333;-76
2024/01/30 03:07:33;;;;;;;16.10;9.15;;;;;;;7.20;100.00;102527.03;5095842;28;20059;-76
2024/01/30 03:09:58;;;;;;;14.23;9.23;;;;;;;7.22;100.00;102530.44;5077955;28;20062;-76
2024/01/30 03:12:24;;;;;;;12.90;8.68;;;;;;;7.22;100.00;102526.94;5077752;28;20024;-76
2024/01/30 03:14:49;;;;;;;13.18;8.45;;;;;;;7.21;100.00;102528.75;5095941;28;20101;-75
2024/01/30 03:17:15;;;;;;;15.10;9.10;;;;;;;7.23;100.00;102529.53;5096122;28;20052;-76
2024/01/30 03:19:40;;;;;;;15.93;9.10;;;;;;;7.26;100.00;102527.66;5096200;28;20081;-77
2024/01/30 03:22:06;;;;;;;15.68;9.60;;;;;;;7.28;100.00;102533.75;5095958;28;20032;-76
2024/01/30 03:24:31;;;;;;;13.60;9.00;;;;;;;7.28;100.00;102529.28;5077848;28;20384;-77
2024/01/30 03:26:56;;;;;;;11.27;8.70;;;;;;;7.29;100.00;102524.88;5096388;28;20075;-76
2024/01/30 03:29:22;;;;;;;12.52;8.75;;;;;;;7.30;100.00;102527.44;5095911;28;20078;-75
2024/01/30 03:31:47;;;;;;;12.60;8.57;;;;;;;7.32;100.00;102527.38;5095810;28;20035;-76
2024/01/30 03:34:12;;;;;;;17.73;9.20;;;;;;;7.36;100.00;102528.91;5095648;28;20028;-76
2024/01/30 03:36:38;;;;;;;16.05;9.63;;;;;;;7.43;100.00;102532.13;5077517;28;20064;-75
2024/01/30 03:39:03;;;;;;;14.75;8.88;;;;;;;7.47;100.00;102531.03;5077487;28;20032;-75
2024/01/30 03:41:28;;;;;;;13.15;9.32;;;;;;;7.47;100.00;102529.22;5095833;28;20104;-76
2024/01/30 03:43:54;;;;;;;11.90;8.52;;;;;;;7.47;100.00;102515.16;5095052;28;20113;-76
2024/01/30 03:46:19;;;;;;;14.27;8.95;;;;;;;7.48;100.00;102516.84;5095404;28;20054;-76
2024/01/30 03:48:47;;;;;;;15.60;9.27;;;;;;;7.52;100.00;102508.66;5076769;28;20048;-76
2024/01/30 03:51:14;;;;;;;12.65;8.73;;;;;;;7.53;100.00;102507.72;5095180;28;20124;-76
2024/01/30 03:53:41;;;;;;;12.82;9.00;;;;;;;7.54;100.00;102512.09;5095729;28;20111;-77
2024/01/30 03:56:06;;;;;;;12.80;8.60;;;;;;;7.54;100.00;102517.41;5077202;28;20122;-75
2024/01/30 03:58:32;;;;;;;15.75;9.00;;;;;;;7.54;100.00;102513.91;5095277;28;20111;-77
2024/01/30 04:00:57;;;;;;;13.93;9.57;;;;;;;7.57;100.00;102513.75;5077308;28;20032;-76
2024/01/30 04:03:22;;;;;;;13.00;9.40;;;;;;;7.57;100.00;102509.28;5095068;28;20114;-76
2024/01/30 04:05:48;;;;;;;14.68;8.32;;;;;;;7.58;100.00;102518.09;5077010;28;20035;-77
2024/01/30 04:08:13;;;;;;;12.00;8.38;;;;;;;7.63;100.00;102515.19;5095148;28;20078;-75
2024/01/30 04:10:38;;;;;;;14.80;9.02;;;;;;;7.62;100.00;102509.06;5077063;28;20028;-76
2024/01/30 04:13:04;;;;;;;15.60;9.30;;;;;;;7.58;100.00;102508.38;5094332;28;20035;-76
2024/01/30 04:15:29;;;;;;;14.32;8.65;;;;;;;7.59;100.00;102512.69;5094393;28;20531;-76
2024/01/30 04:17:59;;;;;;;12.80;8.75;;;;;;;7.63;100.00;102510.78;5076184;28;20048;-76
2024/01/30 04:20:24;;;;;;;11.95;8.45;;;;;;;7.62;100.00;102506.41;5094722;28;20055;-76
2024/01/30 04:22:50;;;;;;;13.05;8.48;;;;;;;7.63;100.00;102507.25;5094626;28;20527;-77
2024/01/30 04:25:15;;;;;;;14.13;8.55;;;;;;;7.63;100.00;102502.81;5094835;28;20030;-76
2024/01/30 04:27:41;;;;;;;12.57;8.02;;;;;;;7.67;100.00;102491.13;5095092;28;20119;-76
2024/01/30 04:30:07;;;;;;;14.10;8.85;;;;;;;7.68;100.00;102490.19;5094656;28;20032;-76
2024/01/30 04:32:32;;;;;;;13.88;8.43;;;;;;;7.70;100.00;102488.34;5094896;28;20031;-76
2024/01/30 04:34:58;;;;;;;11.77;8.52;;;;;;;7.71;100.00;102490.03;5075873;28;20396;-77
2024/01/30 04:37:24;;;;;;;12.50;7.97;;;;;;;7.76;100.00;102487.13;5094723;28;20085;-77
2024/01/30 04:39:49;;;;;;;15.50;8.68;;;;;;;7.82;100.00;102489.44;5094505;28;20055;-78
2024/01/30 04:42:16;;;;;;;15.23;8.30;;;;;;;7.83;100.00;102485.88;5094790;28;20182;-75
2024/01/30 04:44:41;;;;;;;15.00;8.80;;;;;;;7.81;100.00;102479.81;5094371;28;20051;-77
2024/01/30 04:47:08;;;;;;;11.63;8.15;;;;;;;7.82;100.00;102478.84;5094133;28;20473;-76
2024/01/30 04:49:34;;;;;;;15.38;9.30;;;;;;;7.86;100.00;102480.41;5075941;28;20464;-77
2024/01/30 04:52:00;;;;;;;14.93;8.38;;;;;;;7.85;100.00;102480.50;5094037;28;20128;-77
2024/01/30 04:54:25;;;;;;;12.05;8.05;;;;;;;7.86;100.00;102482.22;5094013;28;20035;-76
2024/01/30 04:56:51;;;;;;;13.90;8.52;;;;;;;7.88;100.00;102480.31;5093897;28;20065;-77
2024/01/30 04:59:16;;;;;;;14.38;8.20;;;;;;;7.88;100.00;102481.22;5093918;28;20051;-75
2024/01/30 05:01:41;;;;;;;18.05;8.25;;;;;;;7.90;100.00;102484.63;5093941;28;20043;-74
2024/01/30 05:04:07;;;;;;;11.98;8.38;;;;;;;7.91;100.00;102491.63;5094182;28;20028;-76
2024/01/30 05:06:33;;;;;;;16.75;7.80;;;;;;;7.90;100.00;102494.38;5075800;28;20391;-75
2024/01/30 05:08:58;;;;;;;17.27;8.20;;;;;;;7.91;100.00;102494.28;5093810;28;20111;-75
2024/01/30 05:11:23;;;;;;;14.50;8.05;;;;;;;7.95;100.00;102489.66;5093895;28;20499;-75
2024/01/30 05:13:49;;;;;;;15.60;8.63;;;;;;;7.98;100.00;102486.84;5093767;28;20031;-76
2024/01/30 05:16:14;;;;;;;14.23;8.68;;;;;;;8.02;100.00;102493.72;5093873;28;20500;-76
2024/01/30 05:18:40;;;;;;;11.18;7.80;;;;;;;8.02;100.00;102491.06;5075691;28;20067;-76
2024/01/30 05:21:05;;;;;;;14.23;8.50;;;;;;;8.03;100.00;102487.47;5075442;28;20039;-75
2024/01/30 05:23:31;;;;;;;12.55;7.90;;;;;;;8.01;100.00;102488.50;5093377;28;20025;-76
2024/01/30 05:25:56;;;;;;;13.88;8.23;;;;;;;8.00;100.00;102495.59;5093344;28;20055;-77
2024/01/30 05:28:22;;;;;;;13.40;8.00;;;;;;;8.00;100.00;102497.38;5093824;28;20173;-77
2024/01/30 05:30:47;;;;;;;18.27;8.32;;;;;;;8.03;100.00;102500.75;5075968;28;20028;-76
2024/01/30 05:33:13;;;;;;;16.60;8.40;;;;;;;8.04;100.00;102496.28;5093072;28;20392;-76
2024/01/30 05:35:38;;;;;;;16.17;8.30;;;;;;;8.04;100.00;102481.22;5093748;28;20465;-76
2024/01/30 05:38:04;;;;;;;17.60;7.60;;;;;;;8.04;100.00;102478.56;5093198;28;20043;-77
2024/01/30 05:40:32;;;;;;;14.93;8.38;;;;;;;8.01;100.00;102469.94;5093458;28;20035;-75
2024/01/30 05:43:00;;;;;;;12.68;8.43;;;;;;;8.02;100.00;102469.84;5093402;28;20035;-76
2024/01/30 05:45:26;;;;;;;15.73;7.88;;;;;;;8.02;100.00;102488.41;5093370;28;20123;-75
2024/01/30 05:47:52;;;;;;;16.30;8.07;;;;;;;8.02;100.00;102484.91;5075446;28;20455;-75
2024/01/30 05:50:17;;;;;;;14.80;8.77;;;;;;;8.01;100.00;102481.38;5093256;28;20032;-76
2024/01/30 05:52:43;;;;;;;17.20;8.25;;;;;;;7.99;100.00;102490.38;5093155;28;20104;-77
2024/01/30 05:55:09;;;;;;;19.73;8.48;;;;;;;7.98;100.00;102499.25;5093400;28;20039;-75
2024/01/30 05:57:34;;;;;;;13.32;8.07;;;;;;;7.97;100.00;102494.88;5093290;28;20035;-76
2024/01/30 06:00:00;;;;;;;16.42;8.60;;;;;;;8.01;100.00;102492.00;5093291;28;20040;-77
2024/01/30 06:02:25;;;;;;;11.18;7.60;;;;;;;8.02;100.00;102495.53;5093437;28;20111;-76
2024/01/30 06:04:50;;;;;;;13.48;7.65;;;;;;;8.00;100.00;102494.72;5093345;28;20380;-76
2024/01/30 06:07:17;;;;;;;12.43;8.32;;;;;;;8.02;100.00;102491.06;5093186;28;20389;-77
2024/01/30 06:09:43;;;;;;;18.65;8.40;;;;;;;8.03;100.00;102490.13;5074867;28;20383;-77
2024/01/30 06:12:08;;;;;;;12.70;7.72;;;;;;;8.07;100.00;102502.25;5093140;28;20024;-78
2024/01/30 06:14:33;;;;;;;12.52;7.22;;;;;;;8.14;100.00;102507.25;5093845;28;20028;-77
2024/01/30 06:16:59;;;;;;;16.27;8.35;;;;;;;8.16;100.00;102506.22;5093318;28;20056;-76
2024/01/30 06:19:25;;;;;;;13.43;7.43;;;;;;;8.15;100.00;102506.31;5093386;28;20032;-77
2024/01/30 06:21:50;;;;;;;15.80;8.15;;;;;;;8.11;100.00;102497.66;5093186;28;20145;-75
2024/01/30 06:24:15;;;;;;;15.48;7.55;;;;;;;8.12;100.00;102505.53;5075133;28;20373;-75
2024/01/30 06:26:41;;;;;;;16.30;8.10;;;;;;;8.13;100.00;102501.09;5092957;28;20028;-77
2024/01/30 06:29:07;;;;;;;12.25;7.28;;;;;;;8.10;100.00;102507.41;5074624;28;20036;-76
2024/01/30 06:31:32;;;;;;;16.38;7.90;;;;;;;8.08;100.00;102498.69;5093325;28;20036;-76
2024/01/30 06:33:58;;;;;;;19.08;7.68;;;;;;;8.08;100.00;102498.69;5093161;28;20024;-76
2024/01/30 06:36:23;;;;;;;11.27;7.45;;;;;;;8.13;100.00;102487.81;5092842;28;20074;-76
2024/01/30 06:38:48;;;;;;;18.40;7.80;;;;;;;8.19;100.00;102497.25;5077692;28;20035;-76
2024/01/30 06:41:14;;;;;;;16.05;7.70;;;;;;;8.20;100.00;102501.63;5097040;28;20028;-76
2024/01/30 06:43:39;;;;;;;17.02;7.93;;;;;;;8.28;100.00;102502.06;5096987;28;20043;-76
2024/01/30 06:46:05;;;;;;;18.10;7.57;;;;;;;8.33;100.00;102499.16;5096497;28;20036;-79
2024/01/30 06:48:30;;;;;;;19.85;8.57;;;;;;;8.36;100.00;102504.28;5096226;28;20032;-77
2024/01/30 06:50:57;;;;;;;13.10;7.47;;;;;;;8.40;100.00;102503.19;5096055;28;20038;-77
2024/01/30 06:53:22;;;;;;;12.98;7.90;;;;;;;8.45;100.00;102503.84;5096108;28;20502;-77
2024/01/30 06:55:48;;;;;;;16.15;7.65;;;;;;;8.44;100.00;102502.97;5095938;28;20032;-78
2024/01/30 06:58:13;;;;;;;14.02;8.48;;;;;;;8.51;100.00;102499.97;5096341;28;20071;-76
2024/01/30 07:00:38;;;;;;;13.80;7.20;;;;;;;8.57;100.00;102503.16;5096254;28;20063;-77
2024/01/30 07:03:04;;;;;;;22.30;7.90;;;;;;;8.57;100.00;102497.84;5098159;28;20035;-76
2024/01/30 07:05:29;;;;;;;14.32;8.00;;;;;;;8.60;100.00;102505.63;5103570;28;20384;-74
2024/01/30 07:07:55;;;;;;;13.18;7.53;;;;;;;8.64;100.00;102511.59;5084299;28;20043;-76
2024/01/30 07:10:20;;;;;;;15.30;7.90;;;;;;;8.68;100.00;102514.97;5102508;28;20043;-77
2024/01/30 07:12:46;;;;;;;18.00;8.00;;;;;;;8.66;100.00;102515.03;5104525;28;20502;-78
2024/01/30 07:15:12;;;;;;;15.48;7.85;;;;;;;8.70;100.00;102515.72;5102197;28;20510;-75
2024/01/30 07:17:37;;;;;;;17.55;8.13;;;;;;;8.71;100.00;102517.44;5103899;28;20044;-75
2024/01/30 07:20:06;;;;;;;14.18;7.50;;;;;;;8.74;100.00;102518.09;5102484;28;20111;-77
2024/01/30 07:22:31;;;;;;;17.83;7.80;;;;;;;8.77;100.00;102527.72;5078888;28;20028;-77
2024/01/30 07:24:56;;;;;;;18.65;8.00;;;;;;;8.83;100.00;102522.91;5096157;28;20039;-76
2024/01/30 07:27:22;;;;;;;14.18;7.65;;;;;;;8.83;100.00;102527.34;5096262;28;20038;-76
2024/01/30 07:29:47;;;;;;;20.75;7.60;;;;;;;8.89;100.00;102528.81;5095482;28;20135;-77
2024/01/30 07:32:12;;;;;;;13.90;7.30;;;;;;;8.90;100.00;102528.72;5095732;28;20028;-78
2024/01/30 07:34:38;;;;;;;15.18;8.02;;;;;;;8.93;100.00;102538.31;5095330;28;20032;-75
2024/01/30 07:37:03;;;;;;;13.70;7.85;;;;;;;8.90;100.00;102541.16;5095337;28;20028;-79
2024/01/30 07:39:28;;;;;;;14.18;7.70;;;;;;;8.90;100.00;102549.97;5076791;28;20117;-77
2024/01/30 07:41:54;;;;;;;15.48;7.78;;;;;;;8.90;100.00;102546.47;5095005;28;20035;-77
2024/01/30 07:44:20;;;;;;;20.77;8.63;;;;;;;8.85;100.00;102540.53;5077334;28;20460;-78
2024/01/30 07:46:45;;;;;;;18.67;8.35;;;;;;;8.89;100.00;102550.91;5076723;28;20043;-78
2024/01/30 07:49:11;;;;;;;20.35;7.72;;;;;;;8.90;100.00;102546.47;5076872;28;20032;-78
2024/01/30 07:51:36;;;;;;;14.48;8.40;;;;;;;8.90;100.00;102555.28;5076385;28;20032;-77
2024/01/30 07:54:02;;;;;;;21.02;8.10;;;;;;;8.90;100.00;102549.97;5094827;28;20598;-77
2024/01/30 07:56:27;;;;;;;13.10;8.13;;;;;;;8.88;100.00;102541.22;5095241;28;20032;-77
2024/01/30 07:58:53;;;;;;;17.85;8.90;;;;;;;8.92;100.00;102553.38;5094839;28;20491;-77
2024/01/30 08:01:18;;;;;;;16.38;8.35;;;;;;;8.95;100.00;102553.19;5094629;28;20032;-78
2024/01/30 08:03:44;;;;;;;17.38;7.90;;;;;;;8.98;100.00;102562.81;5094755;28;20407;-77
2024/01/30 08:06:09;;;;;;;16.58;8.38;;;;;;;8.94;100.00;102558.59;5094649;28;20116;-76
2024/01/30 08:08:35;;;;;;;17.45;8.30;;;;;;;8.90;100.00;102567.72;5060530;28;20032;-78
2024/01/30 08:11:00;;;;;;;14.93;8.25;;;;;;;8.85;100.00;102570.59;5094686;28;20101;-76
2024/01/30 08:13:25;;;;;;;12.98;7.60;;;;;;;8.81;100.00;102571.72;5076274;28;20388;-77
2024/01/30 08:15:51;;;;;;;15.60;8.15;;;;;;;8.77;100.00;102578.97;5094168;28;20456;-76
2024/01/30 08:18:16;;;;;;;14.10;8.02;;;;;;;8.81;100.00;102574.38;5094467;28;20115;-80
2024/01/30 08:20:41;;;;;;;17.33;8.05;;;;;;;8.86;100.00;102582.09;5094290;28;20103;-77
2024/01/30 08:23:07;;;;;;;16.90;9.15;;;;;;;8.82;100.00;102584.91;5094417;28;20119;-77
2024/01/30 08:25:32;;;;;;;14.35;8.57;;;;;;;8.81;100.00;102582.34;5076185;28;20027;-78
2024/01/30 08:27:58;;;;;;;14.40;8.32;;;;;;;8.76;100.00;102573.75;5094524;28;20031;-77
2024/01/30 08:30:23;;;;;;;18.85;8.38;;;;;;;8.78;100.00;102582.50;5075780;28;20024;-77
2024/01/30 08:32:48;;;;;;;12.80;8.10;;;;;;;8.77;100.00;102584.28;5094222;28;20362;-78
2024/01/30 08:35:15;;;;;;;18.35;8.82;;;;;;;8.79;100.00;102578.91;5093914;28;20418;-76
2024/01/30 08:37:41;;;;;;;21.17;9.15;;;;;;;8.77;100.00;102575.47;5093929;28;20039;-78
2024/01/30 08:40:08;;;;;;;23.48;8.50;;;;;;;8.75;100.00;102578.22;5076098;28;20028;-78
2024/01/30 08:42:33;;;;;;;22.38;8.70;;;;;;;8.74;100.00;102578.31;5093894;28;20055;-78
2024/01/30 08:44:59;;;;;;;15.40;8.60;;;;;;;8.73;100.00;102585.44;5094045;28;20119;-78
2024/01/30 08:47:25;;;;;;;16.73;8.63;;;;;;;8.73;100.00;102574.81;5075232;28;20024;-78
2024/01/30 08:49:50;;;;;;;16.88;9.25;;;;;;;8.76;100.00;102579.06;5093571;28;20404;-77
2024/01/30 08:52:16;;;;;;;18.42;8.68;;;;;;;8.80;100.00;102572.66;5093518;28;20028;-77
2024/01/30 08:54:41;;;;;;;14.93;8.80;;;;;;;8.80;100.00;102581.47;5094364;28;20028;-77
2024/01/30 08:57:07;;;;;;;17.80;9.40;;;;;;;8.80;100.00;102592.09;5093797;28;20032;-77
2024/01/30 08:59:33;;;;;;;19.95;8.30;;;;;;;8.83;100.00;102593.72;5092991;28;20110;-76
2024/01/30 09:01:59;;;;;;;17.75;9.45;;;;;;;8.84;100.00;102603.41;5094321;28;20108;-77
2024/01/30 09:04:24;;;;;;;17.88;9.13;;;;;;;8.89;100.00;102600.50;5093587;28;20498;-84
2024/01/30 09:06:50;;;;;;;18.90;9.00;;;;;;;8.94;100.00;102598.44;5094166;28;20043;-78
2024/01/30 09:09:16;;;;;;;21.52;9.40;;;;;;;8.96;100.00;102602.72;5094319;28;20384;-78
2024/01/30 09:11:41;;;;;;;18.52;9.98;;;;;;;9.01;100.00;102605.09;5094020;28;20111;-78
2024/01/30 09:14:06;;;;;;;15.40;9.27;;;;;;;9.11;100.00;102610.78;5094253;28;20133;-78
2024/01/30 09:16:32;;;;;;;17.67;8.75;;;;;;;9.16;100.00;102614.00;5094626;28;20360;-79
2024/01/30 09:18:57;;;;;;;16.02;8.50;;;;;;;9.23;100.00;102611.88;5075826;28;20486;-79
2024/01/30 09:21:23;;;;;;;18.23;8.48;;;;;;;9.25;100.00;102621.47;5076083;28;20376;-77
2024/01/30 09:23:49;;;;;;;19.83;8.52;;;;;;;9.18;100.00;102613.00;5094199;28;20036;-78
2024/01/30 09:26:14;;;;;;;17.98;8.52;;;;;;;9.09;100.00;102612.63;5094627;28;20036;-78
2024/01/30 09:28:40;;;;;;;24.95;7.45;;;;;;;9.08;100.00;102622.41;5093822;28;20461;-77
2024/01/30 09:31:10;;;;;;;12.60;5.75;;;;;;;8.97;100.00;102622.16;5075716;28;20039;-76
2024/01/30 09:33:36;;;;;;;12.63;3.83;;;;;;;8.83;100.00;102629.06;5094271;28;20398;-75
2024/01/30 09:36:01;;;;;;;11.10;3.35;;;;;;;8.74;100.00;102644.66;5075574;28;20158;-77
2024/01/30 09:38:27;;;;;;;13.88;3.53;;;;;;;8.66;100.00;102653.03;5093622;28;20156;-77
2024/01/30 09:40:57;;;;;;;11.07;2.58;;;;;;;8.60;100.00;102663.97;5093378;28;20039;-77
2024/01/30 09:43:23;;;;;;;18.13;3.33;;;;;;;8.58;100.00;102655.22;5076533;28;20055;-76
2024/01/30 09:45:51;;;;;;;12.35;2.70;;;;;;;8.55;100.00;102658.88;5093120;28;20051;-77
2024/01/30 09:48:16;;;;;;;8.15;2.22;;;;;;;8.56;100.00;102657.97;5075248;28;20035;-78
2024/01/30 09:50:41;;;;;;;9.50;2.53;;;;;;;8.47;100.00;102661.94;5093323;28;20460;-76
2024/01/30 09:53:08;;;;;;;11.68;2.08;;;;;;;8.41;100.00;102659.59;5093281;28;20039;-75
2024/01/30 09:55:36;;;;;;;11.65;2.40;;;;;;;8.39;100.00;102650.88;5093596;28;20028;-78
2024/01/30 09:58:01;;;;;;;6.70;1.77;;;;;;;8.37;100.00;102663.34;5093466;28;20472;-75
2024/01/30 10:00:27;;;;;;;10.27;2.20;;;;;;;8.32;100.00;102664.53;5075070;28;20167;-76
2024/01/30 10:02:53;;;;;;;13.07;2.63;;;;;;;8.31;100.00;102676.94;5075667;28;20038;-78
2024/01/30 10:05:20;;;;;;;7.85;2.15;;;;;;;8.22;100.00;102670.28;5075414;28;20122;-76
2024/01/30 10:07:56;;;;;;;6.70;1.95;;;;;;;8.12;100.00;102669.94;5092816;28;20024;-77
2024/01/30 10:10:23;;;;;;;9.00;2.03;;;;;;;8.06;100.00;102672.00;5093658;28;20040;-77
2024/01/30 10:12:49;;;;;;;9.40;2.08;;;;;;;8.07;100.00;102669.28;5094832;28;20137;-77
2024/01/30 10:15:14;;;;;;;11.48;1.92;;;;;;;8.08;100.00;102667.50;5096872;28;20060;-76
2024/01/30 10:17:40;;;;;;;8.88;1.98;;;;;;;8.03;100.00;102674.81;5078823;28;20048;-76
2024/01/30 10:20:05;;;;;;;6.88;1.67;;;;;;;8.01;100.00;102676.72;5078692;28;20146;-76
2024/01/30 10:22:31;;;;;;;8.60;1.88;;;;;;;7.97;100.00;102680.44;5097010;28;20544;-76
2024/01/30 10:24:56;;;;;;;10.43;2.40;;;;;;;7.92;100.00;102684.16;5096588;28;20104;-75
2024/01/30 10:27:29;;;;;;;9.82;2.42;;;;;;;7.89;100.00;102684.31;5096845;28;20032;-77
2024/01/30 10:29:57;;;;;;;10.77;1.95;;;;;;;7.80;100.00;102676.84;5078915;28;20034;-77
2024/01/30 10:32:23;;;;;;;8.48;2.05;;;;;;;7.76;100.00;102684.09;5096714;28;20078;-76
2024/01/30 10:34:48;;;;;;;11.80;1.50;;;;;;;7.72;100.00;102693.13;5096628;28;20485;-76
2024/01/30 10:37:16;;;;;;;16.98;2.00;;;;;;;7.84;100.00;102680.22;5096902;28;20373;-77
2024/01/30 10:39:43;;;;;;;9.65;1.92;;;;;;;7.90;100.00;102675.44;5096437;28;20061;-75
2024/01/30 10:42:12;;;;;;;9.07;1.50;;;;;;;7.93;100.00;102693.84;5096833;28;20035;-75
2024/01/30 10:45:04;;;;;;;12.23;1.77;;;;;;;7.94;100.00;102692.03;5096365;28;20115;-80
2024/01/30 10:47:30;;;;;;;9.30;1.80;;;;;;;7.92;100.00;102693.94;5078745;28;20028;-76
2024/01/30 10:49:56;;;;;;;4.97;1.65;;;;;;;7.80;100.00;102698.03;5078201;28;20081;-76
2024/01/30 10:52:27;;;;;;;9.80;1.60;;;;;;;7.62;100.00;102693.66;5096015;28;20073;-76
2024/01/30 10:54:54;;;;;;;6.15;1.85;;;;;;;7.50;100.00;102711.00;5096913;28;20114;-77
2024/01/30 10:57:23;;;;;;;15.35;2.08;;;;;;;7.38;100.00;102715.94;5096913;28;20066;-77
2024/01/30 10:59:49;;;;;;;11.77;1.80;;;;;;;7.32;100.00;102712.72;5078081;28;20028;-78
2024/01/30 11:02:15;;;;;;;10.77;1.70;;;;;;;7.27;100.00;102712.06;5078885;28;20448;-76
2024/01/30 11:04:44;;;;;;;8.63;1.65;;;;;;;7.17;100.00;102707.19;5096363;28;20047;-80
2024/01/30 11:07:24;;;;;;;8.77;2.28;;;;;;;7.18;100.00;102732.75;5095793;28;20484;-77
2024/01/30 11:09:54;;;;;;;10.32;2.08;;;;;;;7.13;100.00;102712.72;5078273;28;20372;-77